Nickajack Observed Data For Previous 48 Hours

Caption
Day and Hour Reservoir Elevation (behind dam)* Tailwater Elevation (below dam)* Average Hourly Discharge*
8/15/2018 1 AM CDT 634.34 597.35 36,531
8/15/2018 2 AM CDT 634.12 596.90 28,110
8/15/2018 3 AM CDT 633.90 596.65 27,961
8/15/2018 4 AM CDT 633.65 596.47 27,888
8/15/2018 5 AM CDT 633.42 596.38 27,970
8/15/2018 6 AM CDT 633.31 595.86 21,535
8/15/2018 7 AM CDT 633.05 596.15 25,533
8/15/2018 8 AM CDT 632.84 596.24 27,923
8/15/2018 9 AM CDT 632.70 596.32 27,982
8/15/2018 10 AM CDT 632.63 596.09 22,514
8/15/2018 11 AM CDT 632.81 596.21 26,709
8/15/2018 12 PM CDT 633.03 596.29 28,156
8/15/2018 1 PM CDT 633.31 596.30 28,012
8/15/2018 2 PM CDT 633.60 596.31 27,962
8/15/2018 3 PM CDT 633.84 596.37 27,929
8/15/2018 4 PM CDT 633.98 597.06 39,324
8/15/2018 5 PM CDT 634.03 597.80 46,391
8/15/2018 6 PM CDT 634.11 598.13 50,454
8/15/2018 7 PM CDT 634.13 598.30 50,517
8/15/2018 8 PM CDT 634.11 598.41 50,431
8/15/2018 9 PM CDT 634.12 598.48 50,394
8/15/2018 10 PM CDT 634.22 597.82 45,632
8/15/2018 11 PM CDT 634.35 597.11 28,041
8/16/2018 12 AM CDT 634.24 596.79 27,781
8/16/2018 1 AM CDT 634.09 596.60 27,821
8/16/2018 2 AM CDT 633.85 596.47 27,692
8/16/2018 3 AM CDT 633.59 596.42 27,872
8/16/2018 4 AM CDT 633.37 596.39 27,757
8/16/2018 5 AM CDT 633.15 596.38 27,666
8/16/2018 6 AM CDT 632.95 596.40 27,967
8/16/2018 7 AM CDT 632.73 596.42 28,082
8/16/2018 8 AM CDT 632.64 596.28 24,938
8/16/2018 9 AM CDT 632.48 596.23 23,963
8/16/2018 10 AM CDT 632.51 596.28 23,817
8/16/2018 11 AM CDT 632.48 596.38 28,090
8/16/2018 12 PM CDT 632.62 596.44 28,193
8/16/2018 1 PM CDT 632.80 596.47 28,222
8/16/2018 2 PM CDT 633.02 596.58 27,944
8/16/2018 3 PM CDT 633.27 596.64 28,025
8/16/2018 4 PM CDT 633.54 596.66 27,977
8/16/2018 5 PM CDT 633.81 596.50 27,953
8/16/2018 6 PM CDT 634.10 596.47 27,922
8/16/2018 7 PM CDT 634.37 596.43 28,021
8/16/2018 8 PM CDT 634.38 597.56 39,920
8/16/2018 9 PM CDT 634.40 598.08 52,715
8/16/2018 10 PM CDT 634.38 598.39 53,016
8/16/2018 11 PM CDT 634.26 598.57 52,919
8/17/2018 12 AM CDT 634.18 598.69 52,970
8/17/2018 1 AM CDT 633.93 598.61 52,304
8/17/2018 2 AM CDT 633.74 597.36 28,551
8/17/2018 3 AM CDT 633.52 596.97 28,175
8/17/2018 4 AM CDT 633.29 596.72 28,213
8/17/2018 5 AM CDT 633.03 596.59 28,282
8/17/2018 6 AM CDT 632.80 596.52 28,359
8/17/2018 7 AM CDT 632.60 596.48 28,272
8/17/2018 8 AM CDT 632.67 595.34 8,950
8/17/2018 9 AM CDT 632.66 594.87 0
8/17/2018 10 AM CDT 632.71 594.65 0
8/17/2018 11 AM CDT 632.62 595.01 7,689

Elevations are in feet above sea level. Discharges are in cubic feet per second and are reported at the end of the hour.